Time;durP1;ratioP1;P1;durP2;ratioP2;P2;SDS_P1;SDS_P2;PMS_P1;PMS_P2;Temp;Humidity;BMP_temperature;BMP_pressure;BME280_temperature;BME280_humidity;BME280_pressure;Samples;Min_cycle;Max_cycle;Signal;HPM_P1;HPM_P2
2021/08/22 00:00:18;;;;;;;8.88;5.20;;;;;;;19.72;69.69;100444.59;5117033;28;20438;-74
2021/08/22 00:02:46;;;;;;;7.50;4.53;;;;;;;19.69;70.12;100444.91;5099059;28;20043;-74
2021/08/22 00:05:14;;;;;;;8.75;4.75;;;;;;;19.62;70.64;100442.91;5117110;28;20512;-74
2021/08/22 00:07:42;;;;;;;8.45;5.00;;;;;;;19.57;71.23;100453.31;5117012;28;20039;-74
2021/08/22 00:10:13;;;;;;;10.30;5.15;;;;;;;19.51;70.29;100453.88;5116508;28;20047;-75
2021/08/22 00:12:42;;;;;;;7.97;4.93;;;;;;;19.37;70.74;100452.44;5117185;28;20048;-75
2021/08/22 00:15:11;;;;;;;8.60;5.05;;;;;;;19.34;70.41;100453.59;5116408;28;20047;-75
2021/08/22 00:17:40;;;;;;;7.18;4.78;;;;;;;19.30;70.59;100463.00;5116835;28;20043;-75
2021/08/22 00:20:08;;;;;;;8.07;4.90;;;;;;;19.16;71.15;100453.47;5116265;28;20054;-74
2021/08/22 00:22:36;;;;;;;7.32;4.55;;;;;;;19.33;70.07;100451.03;5098147;28;20048;-75
2021/08/22 00:25:06;;;;;;;7.13;5.07;;;;;;;19.25;69.89;100440.94;5116644;28;20438;-75
2021/08/22 00:27:36;;;;;;;8.15;4.75;;;;;;;19.13;70.58;100439.38;5117043;28;20047;-74
2021/08/22 00:30:05;;;;;;;7.43;4.68;;;;;;;19.02;70.62;100432.28;5116262;28;20040;-78
2021/08/22 00:32:33;;;;;;;9.40;5.18;;;;;;;19.31;69.43;100436.81;5116320;28;20044;-77
2021/08/22 00:35:02;;;;;;;8.27;4.45;;;;;;;19.16;70.08;100433.69;5116147;28;20035;-77
2021/08/22 00:37:33;;;;;;;8.07;4.20;;;;;;;19.25;69.88;100438.22;5116367;28;20036;-77
2021/08/22 00:40:01;;;;;;;8.15;4.63;;;;;;;19.06;71.06;100435.53;5115187;28;20452;-77
2021/08/22 00:42:32;;;;;;;7.85;4.75;;;;;;;18.99;71.22;100432.53;5115060;28;20040;-74
2021/08/22 00:45:01;;;;;;;8.52;5.13;;;;;;;18.94;71.81;100433.97;5114939;28;20463;-74
2021/08/22 00:47:32;;;;;;;6.60;4.40;;;;;;;18.79;72.41;100437.06;5115135;28;20061;-74
2021/08/22 00:50:02;;;;;;;7.70;4.60;;;;;;;18.96;72.00;100440.94;5114206;28;20054;-74
2021/08/22 00:52:34;;;;;;;7.20;4.68;;;;;;;19.00;71.86;100442.34;5115051;28;20074;-74
2021/08/22 00:55:04;;;;;;;9.50;4.95;;;;;;;18.97;72.58;100439.09;5096487;28;20104;-74
2021/08/22 00:57:35;;;;;;;7.47;4.45;;;;;;;19.06;72.23;100441.78;5115326;28;20043;-74
2021/08/22 01:00:07;;;;;;;7.43;4.38;;;;;;;19.28;71.40;100442.50;5114449;28;20485;-75
2021/08/22 01:02:42;;;;;;;12.63;5.28;;;;;;;19.32;71.18;100439.38;5115193;28;20068;-74
2021/08/22 01:05:19;;;;;;;8.32;5.07;;;;;;;19.48;70.43;100433.34;5114732;28;20036;-74
2021/08/22 01:07:56;;;;;;;11.23;5.45;;;;;;;19.21;72.17;100435.97;5114801;28;20078;-74
2021/08/22 01:10:26;;;;;;;11.13;5.13;;;;;;;19.15;72.47;100437.38;5114718;28;20048;-74
2021/08/22 01:13:00;;;;;;;9.30;5.10;;;;;;;19.21;72.34;100442.22;5114493;28;20392;-74
2021/08/22 01:15:35;;;;;;;9.18;4.95;;;;;;;19.42;71.74;100442.91;5114793;28;20126;-74
2021/08/22 01:18:06;;;;;;;9.88;4.90;;;;;;;19.26;72.11;100444.50;5114398;28;20408;-75
2021/08/22 01:20:41;;;;;;;8.32;4.13;;;;;;;19.30;72.33;100440.50;5114638;28;20122;-75
2021/08/22 01:23:13;;;;;;;8.38;4.90;;;;;;;19.32;72.16;100433.97;5114064;28;20131;-75
2021/08/22 01:25:43;;;;;;;8.93;4.88;;;;;;;19.21;72.93;100431.41;5114809;28;20374;-75
2021/08/22 01:28:12;;;;;;;9.35;5.30;;;;;;;19.05;74.20;100429.28;5114313;28;20047;-75
2021/08/22 01:30:46;;;;;;;8.02;5.03;;;;;;;19.21;73.46;100433.28;5114439;28;20394;-74
2021/08/22 01:33:19;;;;;;;6.63;5.07;;;;;;;19.33;72.79;100435.66;5113876;28;20040;-74
2021/08/22 01:35:48;;;;;;;8.10;5.10;;;;;;;19.15;74.28;100442.78;5114497;28;20051;-74
2021/08/22 01:38:17;;;;;;;8.93;4.88;;;;;;;19.10;74.43;100431.53;5114022;28;20120;-75
2021/08/22 01:40:47;;;;;;;9.25;5.10;;;;;;;19.02;75.15;100437.69;5074394;28;1131624;-74
2021/08/22 01:43:17;;;;;;;8.95;4.80;;;;;;;18.96;75.65;100435.53;5114902;28;20047;-74
2021/08/22 01:45:46;;;;;;;9.00;5.28;;;;;;;19.24;73.86;100441.09;5115064;28;20100;-75
2021/08/22 01:48:16;;;;;;;7.50;4.55;;;;;;;19.41;72.99;100443.06;5114659;28;20042;-76
2021/08/22 01:50:45;;;;;;;9.10;4.90;;;;;;;19.21;73.92;100433.28;5115201;28;20067;-76
2021/08/22 01:53:15;;;;;;;9.25;5.32;;;;;;;19.13;74.33;100439.38;5114601;28;20088;-76
2021/08/22 01:55:44;;;;;;;7.95;5.30;;;;;;;19.12;74.32;100437.69;5115125;28;20054;-76
2021/08/22 01:58:12;;;;;;;8.68;5.28;;;;;;;19.11;74.54;100441.38;5114493;28;20039;-78
2021/08/22 02:00:41;;;;;;;9.60;5.00;;;;;;;19.03;75.18;100443.94;5096622;28;20056;-77
2021/08/22 02:03:17;;;;;;;8.10;4.97;;;;;;;18.97;75.74;100444.50;5113929;28;20036;-78
2021/08/22 02:05:51;;;;;;;10.90;5.18;;;;;;;19.00;75.58;100444.19;5114852;28;20036;-77
2021/08/22 02:08:26;;;;;;;7.35;4.78;;;;;;;18.98;75.70;100446.19;5114395;28;20048;-77
2021/08/22 02:11:02;;;;;;;7.60;4.63;;;;;;;19.01;75.21;100446.78;5114731;28;20043;-77
2021/08/22 02:13:36;;;;;;;8.10;4.72;;;;;;;18.94;75.66;100445.63;5114587;28;20043;-78
2021/08/22 02:16:07;;;;;;;8.57;4.50;;;;;;;18.86;76.96;100448.19;5114407;28;20537;-77
2021/08/22 02:18:40;;;;;;;9.17;5.40;;;;;;;19.09;74.92;100440.66;5114937;28;20044;-77
2021/08/22 02:21:08;;;;;;;9.15;4.95;;;;;;;19.05;74.35;100436.53;5114080;28;20044;-77
2021/08/22 02:23:38;;;;;;;7.47;4.80;;;;;;;19.02;74.75;100434.13;5114259;28;20047;-77
2021/08/22 02:26:08;;;;;;;8.90;4.95;;;;;;;18.96;75.00;100437.38;5114183;28;20058;-74
2021/08/22 02:28:37;;;;;;;8.15;4.55;;;;;;;19.10;74.53;100442.34;5096413;28;20059;-73
2021/08/22 02:31:05;;;;;;;7.45;4.88;;;;;;;19.18;73.45;100445.19;5113686;28;20123;-73
2021/08/22 02:33:33;;;;;;;9.07;5.07;;;;;;;19.26;73.29;100453.47;5114072;28;20118;-73
2021/08/22 02:36:04;;;;;;;6.72;4.35;;;;;;;19.21;73.12;100453.06;5113959;28;20545;-75
2021/08/22 02:38:32;;;;;;;9.18;5.03;;;;;;;19.05;74.08;100448.19;5114105;28;20393;-73
2021/08/22 02:41:00;;;;;;;8.20;4.88;;;;;;;18.98;74.87;100452.47;5096114;28;20552;-76
2021/08/22 02:43:29;;;;;;;8.13;4.32;;;;;;;18.95;74.84;100449.19;5114227;28;20066;-75
2021/08/22 02:45:57;;;;;;;6.60;4.40;;;;;;;18.91;74.71;100445.06;5113982;28;20097;-71
2021/08/22 02:48:25;;;;;;;7.38;4.72;;;;;;;18.96;74.66;100449.06;5113502;28;20469;-72
2021/08/22 02:50:53;;;;;;;6.95;4.35;;;;;;;19.04;74.20;100453.75;5113771;28;20036;-71
2021/08/22 02:53:23;;;;;;;8.95;5.00;;;;;;;18.92;74.62;100446.78;5113598;28;20043;-71
2021/08/22 02:55:51;;;;;;;7.90;4.47;;;;;;;19.02;74.21;100439.53;5113914;28;20051;-70
2021/08/22 02:58:21;;;;;;;8.73;4.70;;;;;;;18.83;75.26;100438.53;5113473;28;20054;-71
2021/08/22 03:00:50;;;;;;;6.97;4.90;;;;;;;18.98;74.39;100440.78;5113645;28;20043;-71
2021/08/22 03:03:19;;;;;;;7.18;4.68;;;;;;;19.04;73.92;100441.09;5113737;28;20047;-75
2021/08/22 03:05:50;;;;;;;7.78;4.72;;;;;;;18.89;75.31;100445.19;5113847;28;20053;-75
2021/08/22 03:08:18;;;;;;;7.80;4.80;;;;;;;18.94;74.27;100439.38;5113582;28;20067;-74
2021/08/22 03:10:48;;;;;;;7.97;4.47;;;;;;;18.95;74.36;100446.50;5113638;28;20101;-74
2021/08/22 03:13:16;;;;;;;8.82;4.72;;;;;;;18.97;74.11;100433.69;5113022;28;20484;-74
2021/08/22 03:15:44;;;;;;;7.85;5.10;;;;;;;19.03;73.99;100443.94;5113467;28;20039;-74
2021/08/22 03:18:13;;;;;;;6.22;4.65;;;;;;;18.86;75.23;100446.34;5113313;28;20039;-74
2021/08/22 03:20:41;;;;;;;8.95;5.07;;;;;;;18.77;75.83;100449.88;5113545;28;20538;-74
2021/08/22 03:23:10;;;;;;;7.07;4.68;;;;;;;18.60;76.32;100437.88;5113071;28;20095;-75
2021/08/22 03:25:38;;;;;;;8.63;5.20;;;;;;;18.86;75.23;100438.22;5113354;28;20093;-74
2021/08/22 03:28:08;;;;;;;7.15;4.63;;;;;;;18.79;75.77;100437.06;5112959;28;20046;-78
2021/08/22 03:30:36;;;;;;;8.02;4.50;;;;;;;18.79;75.81;100441.63;5113657;28;20134;-77
2021/08/22 03:33:04;;;;;;;9.07;5.10;;;;;;;18.85;75.43;100435.69;5113200;28;20043;-81
2021/08/22 03:35:35;;;;;;;6.07;4.47;;;;;;;18.88;75.83;100438.09;5113624;28;20040;-75
2021/08/22 03:38:03;;;;;;;9.40;5.05;;;;;;;18.81;75.85;100445.88;5113304;28;20043;-76
2021/08/22 03:40:31;;;;;;;8.18;5.10;;;;;;;18.77;76.71;100441.78;5113612;28;20048;-76
2021/08/22 03:42:59;;;;;;;7.40;4.90;;;;;;;18.72;76.73;100440.47;5113463;28;20040;-78
2021/08/22 03:45:31;;;;;;;8.30;5.30;;;;;;;18.84;76.60;100440.22;5113135;28;20488;-78
2021/08/22 03:48:00;;;;;;;10.18;4.95;;;;;;;18.71;77.46;100434.22;5113231;28;20105;-78
2021/08/22 03:50:28;;;;;;;8.18;5.10;;;;;;;18.81;76.69;100435.06;5112901;28;20043;-76
2021/08/22 03:53:02;;;;;;;7.10;5.32;;;;;;;18.81;76.31;100426.97;5112997;28;20090;-76
2021/08/22 03:55:33;;;;;;;8.75;5.30;;;;;;;18.72;77.07;100430.56;5113004;28;20093;-76
2021/08/22 03:58:01;;;;;;;9.20;5.22;;;;;;;18.77;76.39;100430.13;5113253;28;20542;-75
2021/08/22 04:00:31;;;;;;;8.02;5.38;;;;;;;18.68;76.88;100426.41;5112658;28;20058;-75
2021/08/22 04:02:59;;;;;;;7.88;5.35;;;;;;;18.65;76.82;100434.78;5113032;28;20040;-75
2021/08/22 04:05:28;;;;;;;7.70;4.93;;;;;;;18.77;76.78;100430.97;5112903;28;20093;-76
2021/08/22 04:07:59;;;;;;;9.02;4.72;;;;;;;18.61;77.34;100446.81;5112910;28;20047;-74
2021/08/22 04:10:27;;;;;;;9.02;6.07;;;;;;;18.54;77.73;100443.84;5112666;28;20231;-74
2021/08/22 04:12:56;;;;;;;7.97;5.03;;;;;;;18.68;76.87;100445.31;5094539;28;20044;-73
2021/08/22 04:15:25;;;;;;;8.00;5.20;;;;;;;18.55;77.18;100444.69;5112847;28;20119;-75
2021/08/22 04:17:54;;;;;;;9.93;5.22;;;;;;;18.58;76.80;100445.25;5112843;28;20561;-75
2021/08/22 04:20:24;;;;;;;10.68;5.60;;;;;;;18.63;76.61;100446.72;5112842;28;20051;-74
2021/08/22 04:22:52;;;;;;;7.32;4.75;;;;;;;18.73;75.65;100448.47;5112809;28;20051;-75
2021/08/22 04:25:21;;;;;;;9.23;5.68;;;;;;;18.78;75.96;100451.59;5113091;28;20070;-75
2021/08/22 04:27:49;;;;;;;8.27;5.22;;;;;;;18.99;74.75;100443.34;5116683;28;20445;-74
2021/08/22 04:30:17;;;;;;;8.38;5.15;;;;;;;19.37;72.84;100450.59;5097988;28;20096;-74
2021/08/22 04:32:46;;;;;;;10.35;5.72;;;;;;;19.22;73.65;100449.34;5116612;28;20369;-75
2021/08/22 04:35:15;;;;;;;8.02;4.82;;;;;;;19.32;73.09;100444.78;5116331;28;20114;-75
2021/08/22 04:37:44;;;;;;;8.15;5.00;;;;;;;19.31;73.38;100432.25;5116492;28;20085;-74
2021/08/22 04:40:12;;;;;;;8.93;5.28;;;;;;;19.28;73.37;100442.50;5115743;28;20070;-75
2021/08/22 04:42:41;;;;;;;8.82;5.35;;;;;;;19.23;74.01;100444.78;5116234;28;20040;-72
2021/08/22 04:45:09;;;;;;;8.90;5.20;;;;;;;19.25;73.74;100443.66;5115926;28;20054;-79
2021/08/22 04:47:38;;;;;;;9.82;4.97;;;;;;;19.39;73.02;100443.19;5116647;28;20097;-73
2021/08/22 04:50:06;;;;;;;9.10;5.40;;;;;;;19.34;73.28;100442.78;5116396;28;20047;-74
2021/08/22 04:52:37;;;;;;;8.35;4.90;;;;;;;19.54;72.39;100448.16;5116536;28;20445;-75
2021/08/22 04:55:07;;;;;;;7.57;5.03;;;;;;;19.55;72.67;100449.88;5116227;28;20085;-73
2021/08/22 04:57:38;;;;;;;9.50;4.97;;;;;;;19.34;73.41;100453.59;5116074;28;20560;-73
2021/08/22 05:00:11;;;;;;;7.22;5.07;;;;;;;19.15;74.49;100453.59;5116237;28;20050;-73
2021/08/22 05:02:40;;;;;;;8.35;5.18;;;;;;;19.54;72.85;100443.59;5115861;28;20035;-77
2021/08/22 05:05:09;;;;;;;6.95;4.75;;;;;;;19.71;71.74;100433.94;5097695;28;20083;-78
2021/08/22 05:07:39;;;;;;;7.78;4.63;;;;;;;19.72;72.09;100441.03;5115793;28;20449;-78
2021/08/22 05:10:08;;;;;;;8.77;5.43;;;;;;;19.89;71.28;100443.00;5115755;28;20053;-75
2021/08/22 05:12:37;;;;;;;9.60;5.22;;;;;;;19.96;70.93;100444.09;5115900;28;20046;-75
2021/08/22 05:15:08;;;;;;;7.25;5.13;;;;;;;19.94;71.46;100447.94;5115694;28;20040;-75
2021/08/22 05:17:38;;;;;;;6.72;5.00;;;;;;;20.09;70.17;100446.47;5115879;28;20396;-75
2021/08/22 05:20:08;;;;;;;9.00;5.20;;;;;;;20.01;70.59;100447.22;5115529;28;20043;-76
2021/08/22 05:22:36;;;;;;;7.13;5.13;;;;;;;19.98;70.69;100449.38;5115226;28;20047;-75
2021/08/22 05:25:07;;;;;;;8.38;4.95;;;;;;;20.04;70.74;100450.63;5115769;28;20197;-75
2021/08/22 05:27:35;;;;;;;14.05;5.47;;;;;;;20.18;70.20;100458.28;5115124;28;20440;-74
2021/08/22 05:30:04;;;;;;;8.07;5.03;;;;;;;20.52;68.27;100456.69;5115473;28;20428;-75
2021/08/22 05:32:32;;;;;;;8.30;4.80;;;;;;;20.61;68.57;100454.09;5115244;28;20039;-74
2021/08/22 05:35:00;;;;;;;7.53;4.85;;;;;;;20.77;68.06;100457.84;5096861;28;20058;-75
2021/08/22 05:37:28;;;;;;;8.15;5.03;;;;;;;21.08;66.03;100458.31;5113884;28;20043;-75
2021/08/22 05:39:56;;;;;;;7.25;5.00;;;;;;;21.04;66.24;100461.50;5114937;28;20052;-75
2021/08/22 05:42:26;;;;;;;7.70;5.10;;;;;;;21.22;65.70;100453.34;5114781;28;20051;-75
2021/08/22 05:44:54;;;;;;;9.02;5.30;;;;;;;21.24;65.31;100454.06;5115167;28;20039;-75
2021/08/22 05:47:23;;;;;;;9.23;5.00;;;;;;;21.55;64.43;100455.38;5114756;28;20469;-71
2021/08/22 05:49:51;;;;;;;8.50;5.10;;;;;;;21.66;64.09;100454.25;5114893;28;20039;-70
2021/08/22 05:52:21;;;;;;;6.65;4.68;;;;;;;22.33;61.91;100451.78;5114579;28;20465;-72
2021/08/22 05:54:50;;;;;;;9.02;4.85;;;;;;;22.22;61.81;100458.38;5096593;28;20048;-71
2021/08/22 05:57:18;;;;;;;9.27;5.10;;;;;;;22.59;60.29;100465.31;5114583;28;20043;-73
2021/08/22 05:59:48;;;;;;;7.53;4.55;;;;;;;23.03;58.87;100458.66;5114960;28;20043;-70
2021/08/22 06:02:16;;;;;;;6.93;4.72;;;;;;;23.50;57.14;100458.00;5114181;28;20067;-73
2021/08/22 06:04:45;;;;;;;7.22;5.10;;;;;;;24.21;54.92;100456.34;5114721;28;20135;-72
2021/08/22 06:07:17;;;;;;;7.32;4.90;;;;;;;24.62;53.16;100448.06;5114658;28;20126;-72
2021/08/22 06:09:46;;;;;;;7.60;4.78;;;;;;;24.75;52.39;100461.94;5114834;28;20446;-72
2021/08/22 06:12:16;;;;;;;7.90;4.85;;;;;;;25.09;51.67;100451.53;5114564;28;20176;-75
2021/08/22 06:14:44;;;;;;;8.35;4.80;;;;;;;24.96;51.85;100448.50;5114490;28;20442;-73
2021/08/22 06:17:14;;;;;;;7.60;4.57;;;;;;;25.01;51.54;100443.38;5114461;28;20437;-73
2021/08/22 06:19:42;;;;;;;8.23;5.10;;;;;;;25.21;51.15;100446.50;5114487;28;20036;-74
2021/08/22 06:22:10;;;;;;;6.28;4.30;;;;;;;25.58;50.10;100451.13;5114283;28;20047;-73
2021/08/22 06:24:39;;;;;;;7.68;5.18;;;;;;;26.15;48.22;100445.13;5114013;28;20047;-72
2021/08/22 06:27:07;;;;;;;8.60;4.90;;;;;;;25.88;48.82;100441.16;5114210;28;20044;-72
2021/08/22 06:29:35;;;;;;;7.65;4.95;;;;;;;25.94;49.43;100447.72;5113839;28;20039;-72
2021/08/22 06:32:04;;;;;;;7.25;4.50;;;;;;;25.84;49.65;100452.63;5114296;28;20089;-72
2021/08/22 06:34:33;;;;;;;8.85;5.03;;;;;;;26.01;48.57;100448.69;5113825;28;20036;-73
2021/08/22 06:37:02;;;;;;;8.60;4.80;;;;;;;26.25;48.47;100455.78;5114190;28;20043;-73
2021/08/22 06:39:30;;;;;;;7.43;4.68;;;;;;;26.25;48.46;100451.16;5113725;28;20078;-75
2021/08/22 06:42:00;;;;;;;6.72;4.60;;;;;;;26.56;47.22;100441.91;5114037;28;20061;-75
2021/08/22 06:44:31;;;;;;;8.55;5.15;;;;;;;26.50;47.88;100445.38;5113863;28;20055;-74
2021/08/22 06:47:00;;;;;;;8.00;5.03;;;;;;;26.28;48.17;100449.06;5114060;28;20059;-73
2021/08/22 06:49:28;;;;;;;8.70;4.63;;;;;;;26.56;47.25;100447.38;5113199;28;20044;-74
2021/08/22 06:51:57;;;;;;;7.10;4.95;;;;;;;26.30;47.79;100446.97;5113891;28;20042;-73
2021/08/22 06:54:26;;;;;;;6.32;4.40;;;;;;;26.22;48.20;100440.56;5113548;28;20048;-72
2021/08/22 06:56:55;;;;;;;8.30;4.95;;;;;;;26.00;48.91;100446.97;5114014;28;20039;-70
2021/08/22 06:59:25;;;;;;;6.43;4.65;;;;;;;26.25;49.23;100445.69;5116560;28;20175;-70
2021/08/22 07:01:53;;;;;;;7.10;4.55;;;;;;;26.43;47.54;100447.19;5113609;28;20067;-72
2021/08/22 07:04:21;;;;;;;8.35;5.00;;;;;;;26.11;47.87;100443.78;5112973;28;20400;-73
2021/08/22 07:06:51;;;;;;;8.10;4.78;;;;;;;25.25;50.15;100441.50;5113293;28;20048;-70
2021/08/22 07:09:20;;;;;;;7.70;4.55;;;;;;;25.02;51.34;100439.66;5113361;28;20398;-74
2021/08/22 07:11:48;;;;;;;6.93;4.88;;;;;;;24.97;51.89;100449.34;5113587;28;20044;-70
2021/08/22 07:14:17;;;;;;;8.63;4.80;;;;;;;24.91;51.40;100450.94;5113599;28;20035;-69
2021/08/22 07:16:45;;;;;;;6.95;5.40;;;;;;;24.57;52.81;100455.91;5113601;28;20608;-70
2021/08/22 07:19:13;;;;;;;7.47;4.78;;;;;;;24.77;52.98;100448.97;5113295;28;20051;-70
2021/08/22 07:21:44;;;;;;;7.25;4.32;;;;;;;25.05;52.42;100447.47;5113145;28;20036;-70
2021/08/22 07:24:12;;;;;;;9.27;5.57;;;;;;;24.90;52.58;100443.78;5113606;28;20044;-69
2021/08/22 07:26:41;;;;;;;6.18;4.72;;;;;;;25.02;51.94;100447.84;5095112;28;20067;-72
2021/08/22 07:29:10;;;;;;;6.95;4.55;;;;;;;25.14;51.95;100444.69;5113498;28;20050;-71
2021/08/22 07:31:38;;;;;;;7.03;4.55;;;;;;;25.27;51.22;100439.44;5113081;28;20032;-72
2021/08/22 07:34:09;;;;;;;6.18;4.78;;;;;;;25.21;51.33;100434.75;5113075;28;20043;-70
2021/08/22 07:36:37;;;;;;;8.07;4.80;;;;;;;24.70;52.84;100439.81;5112892;28;20039;-70
2021/08/22 07:39:08;;;;;;;6.78;4.82;;;;;;;24.93;52.53;100437.97;5112835;28;20056;-70
2021/08/22 07:41:36;;;;;;;8.77;4.80;;;;;;;25.11;52.30;100433.09;5113358;28;20435;-70
2021/08/22 07:44:06;;;;;;;7.68;4.57;;;;;;;25.08;52.73;100441.63;5113047;28;20036;-69
2021/08/22 07:46:34;;;;;;;8.05;5.30;;;;;;;25.27;52.57;100436.72;5112779;28;20130;-70
2021/08/22 07:49:03;;;;;;;6.88;4.90;;;;;;;25.51;50.98;100447.44;5113282;28;20036;-69
2021/08/22 07:51:31;;;;;;;7.20;4.68;;;;;;;25.67;50.65;100452.75;5112767;28;20058;-71
2021/08/22 07:53:59;;;;;;;6.88;5.30;;;;;;;25.51;51.01;100452.91;5113047;28;20541;-70
2021/08/22 07:56:27;;;;;;;6.22;4.68;;;;;;;25.62;50.47;100455.19;5113345;28;20123;-70
2021/08/22 07:58:56;;;;;;;6.18;4.38;;;;;;;25.77;49.93;100447.06;5113009;28;20047;-70
2021/08/22 08:01:28;;;;;;;7.72;4.30;;;;;;;25.79;50.75;100450.47;5115593;28;20062;-70
2021/08/22 08:03:57;;;;;;;6.97;4.03;;;;;;;25.96;49.68;100443.78;5117224;28;20032;-68
2021/08/22 08:06:26;;;;;;;5.75;4.25;;;;;;;25.97;49.56;100447.38;5117040;28;20134;-68
2021/08/22 08:08:54;;;;;;;6.60;4.85;;;;;;;26.04;49.54;100448.28;5116782;28;20043;-68
2021/08/22 08:11:22;;;;;;;7.60;4.90;;;;;;;26.15;48.54;100452.44;5114350;28;20043;-68
2021/08/22 08:13:50;;;;;;;7.53;4.15;;;;;;;26.10;48.68;100449.44;5116604;28;20093;-70
2021/08/22 08:16:20;;;;;;;7.00;4.38;;;;;;;26.12;48.46;100452.81;5116388;28;20046;-68
2021/08/22 08:18:50;;;;;;;7.20;4.75;;;;;;;26.16;47.52;100444.06;5116699;28;20477;-69
2021/08/22 08:21:20;;;;;;;7.55;4.60;;;;;;;26.22;47.66;100446.03;5116715;28;20043;-70
2021/08/22 08:23:51;;;;;;;5.82;4.18;;;;;;;26.52;46.62;100440.56;5116424;28;20036;-70
2021/08/22 08:26:22;;;;;;;5.40;3.80;;;;;;;26.10;47.42;100442.09;5116513;28;20465;-70
2021/08/22 08:28:50;;;;;;;7.63;4.57;;;;;;;25.86;48.80;100440.44;5116464;28;20102;-71
2021/08/22 08:31:20;;;;;;;6.97;4.30;;;;;;;26.01;48.81;100437.75;5116688;28;20488;-70
2021/08/22 08:33:51;;;;;;;5.90;4.03;;;;;;;26.18;48.09;100436.53;5115834;28;20032;-70
2021/08/22 08:36:20;;;;;;;6.40;4.10;;;;;;;26.38;47.81;100435.97;5115847;28;20032;-70
2021/08/22 08:38:49;;;;;;;5.68;4.00;;;;;;;26.62;45.56;100438.38;5112834;28;20076;-70
2021/08/22 08:41:17;;;;;;;5.43;3.60;;;;;;;26.36;46.58;100435.28;5115961;28;20036;-70
2021/08/22 08:43:46;;;;;;;5.75;3.67;;;;;;;26.43;46.23;100436.25;5115615;28;20122;-70
2021/08/22 08:46:17;;;;;;;5.80;3.50;;;;;;;26.49;45.76;100424.56;5115983;28;20051;-70
2021/08/22 08:48:48;;;;;;;8.25;3.83;;;;;;;26.46;46.03;100431.25;5115775;28;20051;-70
2021/08/22 08:51:23;;;;;;;5.40;3.72;;;;;;;26.60;45.88;100426.78;5115807;28;20051;-69
2021/08/22 08:53:52;;;;;;;4.85;3.60;;;;;;;26.69;46.13;100435.72;5115917;28;20084;-69
2021/08/22 08:56:20;;;;;;;5.85;3.90;;;;;;;26.82;45.81;100431.25;5115854;28;20354;-69
2021/08/22 08:58:48;;;;;;;5.68;4.10;;;;;;;27.10;45.39;100438.72;5115828;28;20048;-69
2021/08/22 09:01:17;;;;;;;5.75;3.58;;;;;;;27.25;45.44;100423.09;5116038;28;20043;-69
2021/08/22 09:04:15;;;;;;;5.93;3.90;;;;;;;27.26;45.12;100427.53;5115552;28;20118;-69
2021/08/22 09:07:16;;;;;;;8.02;3.70;;;;;;;27.36;44.45;100433.50;5115968;28;20062;-69
2021/08/22 09:10:22;;;;;;;5.45;3.63;;;;;;;27.47;43.27;100428.53;5082477;28;20052;-69
2021/08/22 09:13:36;;;;;;;4.95;3.35;;;;;;;27.67;43.35;100435.06;5115516;28;20043;-69
2021/08/22 09:16:46;;;;;;;5.88;3.30;;;;;;;27.74;42.40;100427.75;5068230;28;20054;-69
2021/08/22 09:19:54;;;;;;;5.70;3.70;;;;;;;27.41;43.43;100423.84;5115984;28;20399;-68
2021/08/22 09:23:08;;;;;;;5.30;3.10;;;;;;;27.56;42.78;100427.34;5115649;28;20044;-69
2021/08/22 09:26:13;;;;;;;6.95;3.47;;;;;;;27.53;43.03;100420.41;5068015;28;20043;-69
2021/08/22 09:29:33;;;;;;;5.13;3.55;;;;;;;27.66;42.78;100415.03;5114752;28;20040;-71
2021/08/22 09:32:39;;;;;;;4.45;3.10;;;;;;;27.65;43.24;100415.22;5116778;28;20102;-73
2021/08/22 09:35:44;;;;;;;6.35;3.58;;;;;;;27.60;43.77;100412.19;5115440;28;20070;-72
2021/08/22 09:38:57;;;;;;;6.65;3.53;;;;;;;27.60;42.82;100412.19;5115289;28;20044;-70
2021/08/22 09:42:16;;;;;;;5.47;3.25;;;;;;;27.55;42.52;100414.72;5115194;28;20104;-73
2021/08/22 09:45:20;;;;;;;6.50;3.42;;;;;;;27.56;42.19;100416.41;5061877;28;20059;-70
2021/08/22 09:48:31;;;;;;;6.38;3.50;;;;;;;27.61;42.82;100409.28;5114871;28;20105;-70
2021/08/22 09:51:57;;;;;;;6.93;3.53;;;;;;;27.62;42.91;100399.19;5114587;28;20043;-70
2021/08/22 09:55:02;;;;;;;5.05;3.40;;;;;;;27.74;43.54;100397.59;5114866;28;20388;-70
2021/08/22 09:58:19;;;;;;;5.25;3.10;;;;;;;27.84;42.56;100403.56;5114746;28;20071;-70
2021/08/22 10:01:31;;;;;;;5.90;3.35;;;;;;;28.15;40.54;100402.25;5015386;28;20103;-70
2021/08/22 10:04:24;;;;;;;5.22;3.45;;;;;;;28.39;39.87;100401.78;5114425;28;20092;-71
2021/08/22 10:06:59;;;;;;;5.47;3.42;;;;;;;28.63;38.82;100407.78;5114380;28;20146;-70
2021/08/22 10:09:40;;;;;;;5.35;3.45;;;;;;;28.64;38.71;100404.81;5114637;28;20035;-71
2021/08/22 10:12:08;;;;;;;5.53;3.20;;;;;;;28.56;37.76;100404.16;5114695;28;20071;-70
2021/08/22 10:14:38;;;;;;;4.32;2.95;;;;;;;28.40;38.64;100403.47;5114455;28;20123;-72
2021/08/22 10:17:07;;;;;;;5.35;3.38;;;;;;;28.60;38.95;100402.72;5112373;28;20063;-70
2021/08/22 10:19:36;;;;;;;6.40;3.15;;;;;;;28.72;37.57;100398.31;5110900;28;20506;-71
2021/08/22 10:22:11;;;;;;;5.28;3.40;;;;;;;28.78;37.79;100400.25;5113624;28;20436;-70
2021/08/22 10:24:47;;;;;;;8.40;4.47;;;;;;;28.84;37.97;100404.03;5113372;28;20500;-78
2021/08/22 10:27:45;;;;;;;7.63;3.75;;;;;;;28.91;38.23;100385.72;5113780;28;20043;-77
2021/08/22 10:30:18;;;;;;;6.38;3.45;;;;;;;28.91;37.88;100388.47;5109179;28;20044;-77
2021/08/22 10:33:09;;;;;;;7.72;4.43;;;;;;;28.84;38.07;100385.66;5113368;28;20041;-77
2021/08/22 10:35:38;;;;;;;5.68;3.13;;;;;;;28.73;37.60;100383.53;5113833;28;20050;-77
2021/08/22 10:38:26;;;;;;;5.05;3.13;;;;;;;28.72;37.43;100390.91;5112741;28;20048;-77
2021/08/22 10:40:55;;;;;;;55.65;23.90;;;;;;;28.62;37.28;100381.41;5095724;28;20075;-74
2021/08/22 10:43:38;;;;;;;6.45;3.75;;;;;;;28.59;37.26;100376.31;5113773;28;20450;-74
2021/08/22 10:46:07;;;;;;;5.85;3.40;;;;;;;28.61;37.79;100379.72;5113303;28;20163;-74
2021/08/22 10:48:54;;;;;;;5.38;3.33;;;;;;;28.67;38.25;100376.16;5113057;28;20044;-74
2021/08/22 10:51:24;;;;;;;7.97;4.00;;;;;;;28.71;37.63;100367.28;5113116;28;20389;-74
2021/08/22 10:54:16;;;;;;;4.95;3.22;;;;;;;28.83;37.19;100364.75;5112901;28;20442;-74
2021/08/22 10:56:44;;;;;;;11.45;5.55;;;;;;;29.02;36.60;100369.47;5112269;28;20480;-74
2021/08/22 10:59:12;;;;;;;6.28;3.47;;;;;;;28.99;36.75;100371.78;5113132;28;20043;-74
2021/08/22 11:01:43;;;;;;;6.68;3.30;;;;;;;29.09;36.82;100366.72;5113348;28;20101;-73
2021/08/22 11:04:13;;;;;;;8.00;3.45;;;;;;;29.12;36.59;100363.56;5113203;28;20423;-74
2021/08/22 11:07:01;;;;;;;7.18;4.18;;;;;;;28.97;36.76;100355.53;5100246;28;20039;-74
2021/08/22 11:09:42;;;;;;;5.55;3.70;;;;;;;28.91;37.40;100356.34;5112779;28;20396;-73
2021/08/22 11:12:28;;;;;;;6.60;3.40;;;;;;;28.96;37.38;100356.59;5112512;28;20035;-73
2021/08/22 11:14:57;;;;;;;8.48;4.00;;;;;;;29.01;37.18;100358.69;5113090;28;20389;-73
2021/08/22 11:17:26;;;;;;;8.00;4.00;;;;;;;28.92;37.34;100349.81;5112192;28;20052;-73
2021/08/22 11:20:07;;;;;;;7.78;3.85;;;;;;;29.02;37.61;100353.00;5112366;28;20073;-73
2021/08/22 11:22:36;;;;;;;6.18;3.70;;;;;;;29.10;37.59;100348.34;5112286;28;20126;-74
2021/08/22 11:25:08;;;;;;;7.32;4.45;;;;;;;29.09;37.30;100342.03;5094450;28;20058;-74
2021/08/22 11:27:37;;;;;;;7.90;4.35;;;;;;;28.96;37.98;100337.38;5112377;28;20154;-74
2021/08/22 11:30:08;;;;;;;6.45;3.47;;;;;;;28.83;38.26;100342.78;5113074;28;20043;-72
2021/08/22 11:32:38;;;;;;;8.32;3.97;;;;;;;28.75;38.39;100337.50;5112939;28;20085;-73
2021/08/22 11:35:11;;;;;;;5.25;3.45;;;;;;;28.94;38.00;100341.38;5114958;28;20054;-73
2021/08/22 11:37:41;;;;;;;5.53;3.20;;;;;;;29.08;37.17;100341.19;5116967;28;20071;-73
2021/08/22 11:40:13;;;;;;;7.00;3.60;;;;;;;29.07;37.30;100333.16;5117368;28;20484;-75
2021/08/22 11:42:46;;;;;;;5.10;3.22;;;;;;;29.13;37.81;100332.28;5095719;28;20052;-73
2021/08/22 11:45:18;;;;;;;6.45;2.92;;;;;;;29.22;37.38;100328.28;5109628;28;20043;-73
2021/08/22 11:47:47;;;;;;;7.05;3.35;;;;;;;29.39;36.26;100331.44;5116580;28;20044;-73
2021/08/22 11:50:17;;;;;;;5.80;3.20;;;;;;;29.48;35.51;100330.19;5100774;28;20039;-73